Airfield :
LOGIN :

Register | Disclaimer

   EN    FR    IT 

 










Legend :    VFR   Marginal VFR   IFR   Intensive IFR   Very Intensive IFR
Visi :
Ceiling :
>= 8 km
>= 3000ft
5 to 8 km
1000 to 3000 ft
1500m to 5 km
500 to 1000 ft
800 to 1500m
200 to 500 ft
< 800m
< 200 ft
Symbols :   Thunderstorms  Fog  Heavy snow  Heavy precipitations  Wind > 20 kt
SIGMETs :     Misc.  Thunderstorms  Icing  Turbulence  Mountain Waves  Volcanic Ashes






- Airport Elevation : 1512 ft
- IATA code : GHA


DAUG - Noumerate - Ghardaia

CURRENT METAR :
  • 291100Z 17005KT 100V230 CAVOK 42/// Q1012

EXPIRED METARs :
  • 291000Z 11004KT 8000 NSC 40/// Q1013
  • 290900Z 05003KT 8000 NSC 38/02 Q1013

TAF TAF DAUG
Valid from the 29 at 12:00 until the 30 at 12:00 UTC


291100Z 2912/3012 18012KT 8000 NSC
PROB30 2913/2917 18022KT 3000 DRSA FEW033CB
PROB40 3008/3012 18022KT 3000 DRSA



MET'MAP, your aeronautical weather chart ! - Copyright ORBIFLY December 2007 - Disclaimer

ORBIFLY MET'MAP TEAM :

Programming & Development : Alexandra Zaïnal
Original concept : Baudouin d'Aumeries
Technical & hardware support : Manuel Goepfert
Assistance : Marc-Olivier Méhu




SOURCES & CREDITS :

   NOAA